Time;durP1;ratioP1;P1;durP2;ratioP2;P2;SDS_P1;SDS_P2;PMS_P1;PMS_P2;Temp;Humidity;BMP_temperature;BMP_pressure;BME280_temperature;BME280_humidity;BME280_pressure;Samples;Min_cycle;Max_cycle;Signal;HPM_P1;HPM_P2
2022/10/21 00:00:14;;;;;;;0.80;0.80;;;;;;;11.05;100.00;101200.88;5058673;28;20209;-71
2022/10/21 00:02:40;;;;;;;0.70;0.70;;;;;;;10.92;100.00;101183.16;5084937;28;20190;-71
2022/10/21 00:05:08;;;;;;;0.75;0.75;;;;;;;10.89;100.00;101180.47;5085045;28;20592;-71
2022/10/21 00:07:36;;;;;;;0.60;0.60;;;;;;;10.97;100.00;101186.78;5086146;28;20209;-70
2022/10/21 00:10:04;;;;;;;0.80;0.80;;;;;;;10.93;100.00;101188.41;5084858;28;20639;-71
2022/10/21 00:12:31;;;;;;;0.70;0.70;;;;;;;10.87;100.00;101201.19;5089508;28;20197;-71
2022/10/21 00:14:58;;;;;;;0.70;0.70;;;;;;;10.79;100.00;101206.97;5090912;28;20207;-71
2022/10/21 00:17:25;;;;;;;0.80;0.80;;;;;;;10.72;100.00;101208.47;5085365;28;20199;-71
2022/10/21 00:19:52;;;;;;;0.73;0.73;;;;;;;10.67;100.00;101191.88;5086941;28;20190;-71
2022/10/21 00:22:19;;;;;;;0.77;0.77;;;;;;;10.65;100.00;101208.22;5084580;28;20206;-71
2022/10/21 00:24:47;;;;;;;0.70;0.70;;;;;;;10.69;100.00;101202.31;5084978;28;20191;-71
2022/10/21 00:27:14;;;;;;;0.73;0.73;;;;;;;10.50;100.00;101198.22;5084389;28;20198;-71
2022/10/21 00:29:41;;;;;;;0.80;0.80;;;;;;;10.51;100.00;101200.00;5085098;28;20310;-71
2022/10/21 00:32:08;;;;;;;0.80;0.80;;;;;;;10.42;100.00;101190.19;5050005;28;21558;-71
2022/10/21 00:34:35;;;;;;;0.90;0.90;;;;;;;10.30;100.00;101179.44;5085000;28;20194;-71
2022/10/21 00:37:02;;;;;;;0.80;0.80;;;;;;;10.28;100.00;101175.88;5087191;28;20210;-71
2022/10/21 00:39:28;;;;;;;0.80;0.80;;;;;;;10.37;100.00;101196.94;5085241;28;20201;-71
2022/10/21 00:41:56;;;;;;;2.63;2.43;;;;;;;10.25;100.00;101167.13;5068556;28;20569;-70
2022/10/21 00:44:26;;;;;;;0.73;0.73;;;;;;;10.05;100.00;101181.97;5085816;28;20271;-71
2022/10/21 00:46:59;;;;;;;0.80;0.80;;;;;;;10.23;100.00;101189.53;5083733;28;20649;-71
2022/10/21 00:49:34;;;;;;;0.70;0.70;;;;;;;10.18;100.00;101173.81;5087495;28;20221;-71
2022/10/21 00:52:04;;;;;;;0.80;0.80;;;;;;;10.35;100.00;101188.22;5085064;28;20212;-71
2022/10/21 00:54:31;;;;;;;0.77;0.77;;;;;;;10.22;100.00;101186.06;5084993;28;20621;-71
2022/10/21 00:57:00;;;;;;;0.90;0.90;;;;;;;10.32;100.00;101187.25;5084333;28;20685;-71
2022/10/21 00:59:33;;;;;;;0.70;0.70;;;;;;;10.42;100.00;101185.00;5084271;28;20696;-71
2022/10/21 01:02:00;;;;;;;0.70;0.70;;;;;;;9.72;100.00;101082.38;5084569;28;20213;-71
2022/10/21 01:04:27;;;;;;;0.70;0.70;;;;;;;10.35;100.00;101190.81;5084955;28;20279;-71
2022/10/21 01:06:55;;;;;;;0.80;0.80;;;;;;;10.29;100.00;101162.09;5086237;28;20195;-71
2022/10/21 01:09:24;;;;;;;1.23;1.23;;;;;;;10.41;100.00;101178.06;5084433;28;20237;-71
2022/10/21 01:11:51;;;;;;;0.70;0.70;;;;;;;10.47;100.00;101176.50;5086895;28;20579;-71
2022/10/21 01:14:41;;;;;;;0.80;0.80;;;;;;;10.52;100.00;101159.41;5067180;28;20271;-71
2022/10/21 01:17:20;;;;;;;0.80;0.80;;;;;;;10.57;100.00;101174.25;5084412;28;20190;-71
2022/10/21 01:20:17;;;;;;;0.68;0.68;;;;;;;10.52;100.00;101170.66;5081614;28;20238;-71
2022/10/21 01:23:11;;;;;;;0.70;0.70;;;;;;;10.55;100.00;101175.03;5076911;28;20377;-71
2022/10/21 01:25:56;;;;;;;0.70;0.70;;;;;;;10.46;100.00;101144.50;5083975;28;20202;-72
2022/10/21 01:28:35;;;;;;;0.80;0.80;;;;;;;10.62;100.00;101169.22;5083795;28;20194;-72
2022/10/21 01:31:13;;;;;;;0.80;0.80;;;;;;;10.67;100.00;101170.22;5084243;28;20197;-71
2022/10/21 01:33:42;;;;;;;0.70;0.70;;;;;;;10.64;100.00;101164.94;5072962;28;20693;-71
2022/10/21 01:36:18;;;;;;;0.70;0.70;;;;;;;10.66;100.00;101168.50;5085332;28;20198;-71
2022/10/21 01:38:53;;;;;;;0.70;0.70;;;;;;;10.61;100.00;101172.63;5079544;28;20584;-72
2022/10/21 01:41:27;;;;;;;0.70;0.70;;;;;;;10.64;100.00;101172.72;5085775;28;20334;-71
2022/10/21 01:44:03;;;;;;;0.80;0.80;;;;;;;10.57;100.00;101168.19;5087920;28;20206;-71
2022/10/21 01:46:40;;;;;;;0.80;0.80;;;;;;;10.79;100.00;101170.63;5089522;28;20194;-71
2022/10/21 01:49:15;;;;;;;0.90;0.90;;;;;;;10.69;100.00;101176.38;5090988;28;20226;-70
2022/10/21 01:51:42;;;;;;;2.70;1.65;;;;;;;9.99;100.00;101085.03;5081779;28;20206;-71
2022/10/21 01:54:14;;;;;;;0.70;0.70;;;;;;;10.59;100.00;101171.72;5060050;28;20230;-71
2022/10/21 01:56:42;;;;;;;0.80;0.80;;;;;;;10.55;100.00;101177.63;5084037;28;20210;-72
2022/10/21 01:59:11;;;;;;;0.80;0.80;;;;;;;10.38;100.00;101158.94;5083635;28;20201;-72
2022/10/21 02:01:40;;;;;;;1.93;1.37;;;;;;;10.55;100.00;101181.13;5082979;28;20202;-71
2022/10/21 02:04:10;;;;;;;0.67;0.67;;;;;;;10.42;100.00;101165.97;5083194;28;20202;-71
2022/10/21 02:06:37;;;;;;;1.65;1.55;;;;;;;10.40;100.00;101186.69;5083169;28;20205;-73
2022/10/21 02:09:04;;;;;;;0.75;0.75;;;;;;;10.38;100.00;101187.47;5082791;28;20229;-71
2022/10/21 02:11:34;;;;;;;0.90;0.90;;;;;;;10.44;100.00;101175.59;5082890;28;20190;-71
2022/10/21 02:14:06;;;;;;;0.80;0.80;;;;;;;10.41;100.00;101178.06;5082892;28;20260;-71
2022/10/21 02:16:37;;;;;;;0.80;0.80;;;;;;;10.44;100.00;101183.34;5083520;28;20198;-71
2022/10/21 02:19:11;;;;;;;0.80;0.80;;;;;;;10.31;99.69;101170.78;5083002;28;20230;-71
2022/10/21 02:21:38;;;;;;;0.80;0.80;;;;;;;10.28;97.18;101183.66;5072834;28;20731;-71
2022/10/21 02:24:09;;;;;;;0.80;0.80;;;;;;;10.22;95.49;101147.19;5083121;28;20209;-71
2022/10/21 02:26:36;;;;;;;0.80;0.80;;;;;;;10.10;94.59;101182.13;5083628;28;20198;-71
2022/10/21 02:29:04;;;;;;;0.70;0.70;;;;;;;9.52;92.79;101083.41;5083622;28;20575;-71
2022/10/21 02:31:44;;;;;;;0.80;0.80;;;;;;;10.30;91.58;101188.91;5082444;28;20511;-71
2022/10/21 02:34:20;;;;;;;0.80;0.80;;;;;;;9.78;88.75;101103.28;5083039;28;20205;-71
2022/10/21 02:36:54;;;;;;;0.80;0.80;;;;;;;10.33;86.75;101194.19;5085126;28;20206;-71
2022/10/21 02:39:27;;;;;;;0.80;0.80;;;;;;;10.26;86.20;101195.69;5083259;28;20194;-71
2022/10/21 02:41:56;;;;;;;0.70;0.70;;;;;;;10.17;84.02;101192.78;5083742;28;20580;-71
2022/10/21 02:44:23;;;;;;;0.70;0.70;;;;;;;10.05;83.08;101200.13;5084754;28;20959;-70
2022/10/21 02:46:50;;;;;;;0.90;0.90;;;;;;;10.07;82.29;101198.44;5081852;28;20603;-70
2022/10/21 02:49:18;;;;;;;0.80;0.80;;;;;;;10.09;81.47;101193.31;5073949;28;20234;-70
2022/10/21 02:51:45;;;;;;;0.70;0.70;;;;;;;9.96;79.58;101195.47;5074030;28;20202;-70
2022/10/21 02:54:12;;;;;;;0.80;0.80;;;;;;;9.93;78.90;101191.91;5074718;28;20214;-70
2022/10/21 02:56:39;;;;;;;1.17;1.17;;;;;;;9.84;78.14;101170.88;5074093;28;20210;-70
2022/10/21 02:59:06;;;;;;;0.80;0.80;;;;;;;9.88;77.16;101193.47;5074319;28;20214;-70
2022/10/21 03:01:33;;;;;;;0.80;0.80;;;;;;;9.89;76.24;101200.38;5086646;28;20726;-71
2022/10/21 03:03:59;;;;;;;0.90;0.90;;;;;;;9.86;75.77;101195.09;5087080;28;20942;-70
2022/10/21 03:06:27;;;;;;;1.00;1.00;;;;;;;10.03;74.86;101193.09;5086924;28;20641;-71
2022/10/21 03:08:54;;;;;;;0.90;0.90;;;;;;;9.86;74.39;101200.28;5086245;28;20210;-70
2022/10/21 03:11:21;;;;;;;3.40;3.13;;;;;;;9.77;75.17;101185.31;5086340;28;20218;-70
2022/10/21 03:13:48;;;;;;;1.00;1.00;;;;;;;9.87;75.08;101197.75;5086670;28;21691;-71
2022/10/21 03:16:15;;;;;;;0.67;0.67;;;;;;;9.84;75.00;101196.78;5088040;28;20190;-70
2022/10/21 03:18:41;;;;;;;0.80;0.80;;;;;;;9.74;74.23;101181.69;5088873;28;20233;-71
2022/10/21 03:21:08;;;;;;;0.80;0.80;;;;;;;9.84;73.32;101201.94;5086553;28;20202;-71
2022/10/21 03:23:36;;;;;;;2.00;1.63;;;;;;;9.94;72.73;101201.44;5050776;28;20324;-71
2022/10/21 03:26:03;;;;;;;0.60;0.60;;;;;;;9.82;72.64;101206.19;5085680;28;20248;-71
2022/10/21 03:28:30;;;;;;;0.73;0.73;;;;;;;9.32;71.67;101112.03;5085899;28;20210;-73
2022/10/21 03:30:57;;;;;;;0.90;0.90;;;;;;;9.86;71.39;101210.66;5084460;28;20313;-73
2022/10/21 03:33:23;;;;;;;0.90;0.90;;;;;;;9.81;72.12;101207.03;5085654;28;20203;-70
2022/10/21 03:35:50;;;;;;;0.70;0.70;;;;;;;9.79;71.98;101196.59;5086481;28;20267;-70
2022/10/21 03:38:17;;;;;;;0.80;0.80;;;;;;;9.65;70.59;101210.75;5086767;28;20202;-71
2022/10/21 03:40:45;;;;;;;0.80;0.80;;;;;;;9.98;70.18;101216.28;5094894;28;20243;-71
2022/10/21 03:43:12;;;;;;;0.70;0.70;;;;;;;9.85;69.31;101216.66;5088943;28;20201;-70
2022/10/21 03:45:39;;;;;;;0.70;0.70;;;;;;;9.86;70.03;101221.00;5086302;28;20208;-70
2022/10/21 03:48:06;;;;;;;0.70;0.70;;;;;;;9.82;70.47;101216.53;5085833;28;20209;-70
2022/10/21 03:50:32;;;;;;;0.80;0.80;;;;;;;9.82;69.02;101213.94;5088249;28;21604;-70
2022/10/21 03:52:59;;;;;;;0.80;0.80;;;;;;;9.62;68.74;101194.22;5086211;28;20222;-70
2022/10/21 03:55:27;;;;;;;0.90;0.90;;;;;;;9.73;68.30;101198.09;5084958;28;20294;-70
2022/10/21 03:57:55;;;;;;;0.80;0.80;;;;;;;9.93;68.46;101217.81;5084937;28;20206;-71
2022/10/21 04:00:22;;;;;;;0.90;0.90;;;;;;;9.80;67.83;101210.44;5082932;28;20213;-71
2022/10/21 04:02:49;;;;;;;0.90;0.90;;;;;;;9.66;67.41;101191.81;5084715;28;20205;-71
2022/10/21 04:05:16;;;;;;;0.80;0.80;;;;;;;9.75;66.40;101193.84;5083566;28;20206;-70
2022/10/21 04:07:43;;;;;;;0.80;0.80;;;;;;;9.79;66.39;101209.53;5083741;28;20239;-70
2022/10/21 04:10:10;;;;;;;0.77;0.77;;;;;;;9.73;67.00;101204.16;5084438;28;20662;-70
2022/10/21 04:12:37;;;;;;;0.70;0.70;;;;;;;9.71;66.39;101215.25;5082891;28;20194;-70
2022/10/21 04:15:07;;;;;;;0.70;0.70;;;;;;;9.92;66.53;101211.75;5084912;28;20206;-70
2022/10/21 04:17:33;;;;;;;1.20;1.20;;;;;;;9.61;67.01;101182.09;5083154;28;21458;-71
2022/10/21 04:20:00;;;;;;;0.80;0.80;;;;;;;9.77;67.67;101211.22;5056066;28;20198;-71
2022/10/21 04:22:27;;;;;;;0.70;0.70;;;;;;;9.68;66.77;101197.03;5083365;28;20557;-71
2022/10/21 04:24:54;;;;;;;0.70;0.70;;;;;;;9.25;66.75;101115.22;5082438;28;20753;-71
2022/10/21 04:27:20;;;;;;;0.70;0.70;;;;;;;9.79;66.74;101216.44;5083353;28;20206;-71
2022/10/21 04:29:47;;;;;;;0.80;0.80;;;;;;;9.68;66.75;101199.63;5084786;28;20736;-71
2022/10/21 04:32:15;;;;;;;0.80;0.80;;;;;;;9.81;66.70;101191.50;5084504;28;20201;-71
2022/10/21 04:34:43;;;;;;;0.90;0.90;;;;;;;9.82;66.16;101206.19;5084470;28;20202;-70
2022/10/21 04:37:10;;;;;;;0.80;0.80;;;;;;;9.82;66.18;101212.25;5085557;28;20198;-70
2022/10/21 04:39:37;;;;;;;0.70;0.70;;;;;;;9.80;66.46;101210.44;5050339;28;20205;-70
2022/10/21 04:42:04;;;;;;;0.80;0.80;;;;;;;9.82;67.27;101208.78;5037410;28;20594;-70
2022/10/21 04:44:31;;;;;;;0.80;0.80;;;;;;;9.67;68.05;101188.38;5087148;28;20673;-71
2022/10/21 04:46:57;;;;;;;0.80;0.80;;;;;;;9.81;68.73;101207.03;5086238;28;20202;-73
2022/10/21 04:49:26;;;;;;;0.80;0.80;;;;;;;9.90;68.66;101209.94;5081348;28;20206;-71
2022/10/21 04:51:52;;;;;;;0.73;0.73;;;;;;;9.76;68.47;101214.63;5082041;28;20743;-71
2022/10/21 04:54:19;;;;;;;0.80;0.80;;;;;;;9.78;68.76;101209.47;5083005;28;20708;-70
2022/10/21 04:56:46;;;;;;;0.80;0.80;;;;;;;9.80;69.54;101220.78;5083178;28;20285;-71
2022/10/21 04:59:13;;;;;;;0.80;0.80;;;;;;;9.79;69.43;101201.78;5047914;28;20203;-71
2022/10/21 05:01:40;;;;;;;0.80;0.80;;;;;;;9.93;68.31;101217.81;5084595;28;20205;-71
2022/10/21 05:04:07;;;;;;;0.77;0.77;;;;;;;9.96;66.71;101220.50;5084949;28;20206;-72
2022/10/21 05:06:35;;;;;;;0.80;0.80;;;;;;;10.17;65.63;101216.09;5079220;28;20678;-71
2022/10/21 05:09:01;;;;;;;0.77;0.77;;;;;;;10.08;74.84;101204.50;5081708;28;20263;-70
2022/10/21 05:11:29;;;;;;;0.80;0.80;;;;;;;10.21;76.99;101209.31;5081695;28;20660;-71
2022/10/21 05:13:56;;;;;;;0.70;0.70;;;;;;;10.32;69.29;101228.72;5081293;28;20205;-70
2022/10/21 05:16:23;;;;;;;0.80;0.80;;;;;;;10.33;68.10;101231.38;5082666;28;20225;-72
2022/10/21 05:18:50;;;;;;;0.80;0.80;;;;;;;10.45;77.89;101231.78;5083952;28;20647;-74
2022/10/21 05:21:17;;;;;;;0.80;0.80;;;;;;;10.62;78.12;101221.09;5082746;28;20201;-71
2022/10/21 05:23:45;;;;;;;0.73;0.73;;;;;;;10.81;71.93;101226.03;5082159;28;20221;-71
2022/10/21 05:26:12;;;;;;;0.70;0.70;;;;;;;10.76;71.67;101238.00;5081247;28;20195;-70
2022/10/21 05:28:38;;;;;;;0.90;0.90;;;;;;;10.80;71.49;101239.84;5081097;28;20190;-72
2022/10/21 05:31:05;;;;;;;0.70;0.70;;;;;;;10.82;71.40;101238.19;5081493;28;20302;-71
2022/10/21 05:33:32;;;;;;;0.80;0.80;;;;;;;10.79;71.37;101235.50;5078823;28;20411;-71
2022/10/21 05:36:01;;;;;;;0.70;0.70;;;;;;;10.61;72.03;101206.34;5078676;28;20217;-72
2022/10/21 05:38:28;;;;;;;0.80;0.80;;;;;;;10.77;72.37;101239.75;5078687;28;20678;-71
2022/10/21 05:40:56;;;;;;;0.90;0.90;;;;;;;10.91;72.93;101238.50;5081326;28;20213;-71
2022/10/21 05:43:23;;;;;;;0.80;0.80;;;;;;;10.92;76.15;101245.41;5084499;28;20206;-72
2022/10/21 05:45:50;;;;;;;0.80;0.80;;;;;;;10.95;73.58;101248.16;5075664;28;20557;-72
2022/10/21 05:48:17;;;;;;;0.80;0.80;;;;;;;10.86;72.48;101237.44;5072320;28;20203;-72
2022/10/21 05:50:44;;;;;;;0.90;0.90;;;;;;;10.93;72.83;101242.00;5070119;28;20261;-72
2022/10/21 05:53:11;;;;;;;0.80;0.80;;;;;;;10.82;70.17;101251.16;5051114;28;20211;-71
2022/10/21 05:55:38;;;;;;;0.70;0.70;;;;;;;10.66;71.63;101252.38;5068306;28;20198;-72
2022/10/21 05:58:06;;;;;;;0.80;0.80;;;;;;;10.67;73.16;101248.03;5055411;28;20251;-72
2022/10/21 06:00:33;;;;;;;0.80;0.80;;;;;;;10.51;71.52;101250.97;5036115;28;20204;-72
2022/10/21 06:02:59;;;;;;;0.80;0.80;;;;;;;10.62;71.06;101249.63;5063464;28;20207;-72
2022/10/21 06:05:26;;;;;;;0.73;0.73;;;;;;;10.77;71.32;101258.78;5049675;28;20206;-72
2022/10/21 06:07:53;;;;;;;0.80;0.80;;;;;;;10.84;72.34;101257.28;5049615;28;20663;-72
2022/10/21 06:10:20;;;;;;;0.70;0.70;;;;;;;10.87;71.07;101257.38;5034442;28;20574;-72
2022/10/21 06:12:47;;;;;;;0.70;0.70;;;;;;;11.11;80.65;101258.16;5067051;28;20671;-71
2022/10/21 06:15:15;;;;;;;0.80;0.80;;;;;;;11.18;73.25;101260.13;5060000;28;20672;-71
2022/10/21 06:17:41;;;;;;;0.90;0.90;;;;;;;10.89;72.00;101266.97;5065045;28;20229;-71
2022/10/21 06:20:09;;;;;;;0.80;0.80;;;;;;;11.19;71.51;101258.41;5070986;28;20210;-71
2022/10/21 06:22:35;;;;;;;0.80;0.80;;;;;;;11.32;70.70;101266.63;5073755;28;20206;-72
2022/10/21 06:25:02;;;;;;;0.70;0.70;;;;;;;11.29;70.25;101269.13;5073682;28;20199;-71
2022/10/21 06:27:29;;;;;;;0.90;0.90;;;;;;;11.07;71.72;101274.47;5073669;28;20206;-71
2022/10/21 06:29:56;;;;;;;0.70;0.70;;;;;;;11.19;71.26;101268.78;5073494;28;20207;-71
2022/10/21 06:32:24;;;;;;;0.75;0.75;;;;;;;11.13;71.52;101271.19;5054705;28;20225;-71
2022/10/21 06:34:51;;;;;;;0.80;0.80;;;;;;;10.94;71.79;101275.81;5070427;28;20667;-71
2022/10/21 06:37:17;;;;;;;0.70;0.70;;;;;;;10.92;72.16;101251.50;5052982;28;20570;-71
2022/10/21 06:39:44;;;;;;;0.80;0.80;;;;;;;11.17;71.44;101279.13;5053225;28;20234;-70
2022/10/21 06:42:11;;;;;;;0.70;0.70;;;;;;;11.07;70.42;101260.59;5060674;28;20643;-71
2022/10/21 06:44:38;;;;;;;0.70;0.70;;;;;;;11.08;69.93;101284.03;5068168;28;20203;-72
2022/10/21 06:47:04;;;;;;;0.80;0.80;;;;;;;10.85;70.12;101243.47;5067099;28;20199;-71
2022/10/21 06:49:33;;;;;;;1.00;1.00;;;;;;;11.25;70.34;101277.66;5061373;28;20206;-71
2022/10/21 06:51:59;;;;;;;0.80;0.80;;;;;;;11.16;69.60;101246.22;5058164;28;20219;-71
2022/10/21 06:54:26;;;;;;;0.67;0.67;;;;;;;11.22;68.00;101276.66;5063997;28;20579;-70
2022/10/21 06:56:53;;;;;;;0.70;0.70;;;;;;;11.36;67.03;101278.88;5070345;28;20199;-71
2022/10/21 06:59:20;;;;;;;0.80;0.80;;;;;;;11.56;66.84;101279.47;5072663;28;20195;-71
2022/10/21 07:01:47;;;;;;;1.20;1.20;;;;;;;11.75;64.23;101288.72;5065870;28;20264;-70
2022/10/21 07:04:14;;;;;;;0.80;0.80;;;;;;;11.84;64.07;101276.88;5071072;28;20587;-71
2022/10/21 07:06:42;;;;;;;0.70;0.70;;;;;;;11.76;64.66;101278.38;5060111;28;20204;-71
2022/10/21 07:09:09;;;;;;;0.70;0.70;;;;;;;11.52;65.19;101250.78;5054204;28;20691;-72
2022/10/21 07:11:36;;;;;;;0.80;0.80;;;;;;;11.93;63.82;101252.88;5065691;28;20235;-71
2022/10/21 07:14:03;;;;;;;0.70;0.70;;;;;;;12.03;63.96;101272.19;5057105;28;20671;-70
2022/10/21 07:16:32;;;;;;;1.25;1.25;;;;;;;12.11;64.36;101271.59;5058751;28;20215;-70
2022/10/21 07:18:59;;;;;;;0.70;0.70;;;;;;;12.08;64.37;101270.63;5059875;28;20243;-70
2022/10/21 07:21:29;;;;;;;0.70;0.70;;;;;;;12.21;64.98;101276.19;5071190;28;20281;-70
2022/10/21 07:23:58;;;;;;;0.70;0.70;;;;;;;12.53;64.34;101281.38;5072596;28;20256;-70
2022/10/21 07:26:27;;;;;;;0.90;0.90;;;;;;;12.29;64.03;101245.19;5072219;28;20664;-70
2022/10/21 07:28:56;;;;;;;0.70;0.70;;;;;;;12.53;64.19;101278.75;5072245;28;20207;-72
2022/10/21 07:31:23;;;;;;;0.60;0.60;;;;;;;12.65;63.92;101281.69;5071866;28;20309;-71
2022/10/21 07:33:50;;;;;;;0.80;0.80;;;;;;;12.56;64.06;101271.91;5068078;28;20199;-71
2022/10/21 07:36:20;;;;;;;0.75;0.75;;;;;;;12.87;64.45;101276.19;5067405;28;20668;-71
2022/10/21 07:38:48;;;;;;;0.70;0.70;;;;;;;13.01;63.48;101277.41;5068270;28;20214;-70
2022/10/21 07:41:20;;;;;;;0.80;0.80;;;;;;;13.24;62.67;101273.66;5058158;28;20202;-71
2022/10/21 07:43:47;;;;;;;0.70;0.70;;;;;;;13.00;63.56;101262.63;5052327;28;20206;-71
2022/10/21 07:46:15;;;;;;;0.70;0.70;;;;;;;13.28;62.76;101267.69;5058147;28;20576;-71
2022/10/21 07:48:42;;;;;;;0.70;0.70;;;;;;;13.46;61.86;101277.63;5068370;28;20209;-71
2022/10/21 07:51:11;;;;;;;0.80;0.80;;;;;;;13.29;62.38;101186.09;5071056;28;20226;-73
2022/10/21 07:53:38;;;;;;;0.70;0.70;;;;;;;13.74;61.54;101266.94;5055435;28;20202;-71
2022/10/21 07:56:08;;;;;;;0.70;0.70;;;;;;;13.71;61.30;101258.19;5059470;28;20199;-72
2022/10/21 07:58:36;;;;;;;0.60;0.60;;;;;;;13.76;60.94;101260.06;5057685;28;20198;-71
2022/10/21 08:01:05;;;;;;;0.60;0.60;;;;;;;13.72;61.71;101244.31;5056899;28;20207;-72
2022/10/21 08:03:32;;;;;;;0.70;0.70;;;;;;;13.91;61.57;101264.72;5052370;28;20640;-71
2022/10/21 08:05:59;;;;;;;0.70;0.70;;;;;;;14.06;62.13;101267.59;5060005;28;20202;-71
2022/10/21 08:08:26;;;;;;;0.70;0.70;;;;;;;14.01;62.21;101271.88;5065669;28;20856;-70
2022/10/21 08:10:55;;;;;;;0.70;0.70;;;;;;;14.10;62.08;101263.34;5065512;28;20199;-72
2022/10/21 08:13:22;;;;;;;0.70;0.70;;;;;;;13.90;62.49;101209.06;5071163;28;20599;-72
2022/10/21 08:15:51;;;;;;;0.70;0.70;;;;;;;14.19;62.36;101260.91;5069148;28;20205;-71
2022/10/21 08:18:19;;;;;;;0.60;0.60;;;;;;;14.14;62.75;101267.75;5068573;28;20299;-71
2022/10/21 08:20:47;;;;;;;0.60;0.60;;;;;;;14.31;62.27;101264.63;5071244;28;20264;-71
2022/10/21 08:23:16;;;;;;;0.70;0.70;;;;;;;14.53;61.72;101271.16;5052539;28;20263;-71
2022/10/21 08:25:47;;;;;;;0.60;0.60;;;;;;;14.84;61.14;101265.59;5071218;28;20210;-71
2022/10/21 08:28:14;;;;;;;0.70;0.70;;;;;;;14.59;61.78;101267.78;5071448;28;20195;-71
2022/10/21 08:30:41;;;;;;;0.60;0.60;;;;;;;14.32;63.32;101249.84;5063107;28;20598;-71
2022/10/21 08:33:10;;;;;;;0.70;0.70;;;;;;;14.48;63.58;101259.78;5069578;28;20206;-71
2022/10/21 08:35:38;;;;;;;0.60;0.60;;;;;;;14.37;62.82;101245.66;5071585;28;20198;-71
2022/10/21 08:38:05;;;;;;;0.60;0.60;;;;;;;14.39;62.74;101256.97;5071795;28;20206;-71
2022/10/21 08:40:38;;;;;;;0.70;0.70;;;;;;;14.86;62.44;101268.25;5071543;28;20583;-71
2022/10/21 08:43:09;;;;;;;0.70;0.70;;;;;;;14.97;62.06;101243.19;5070694;28;20692;-71
2022/10/21 08:45:41;;;;;;;0.65;0.65;;;;;;;14.90;62.18;101238.72;5071411;28;20600;-72
2022/10/21 08:48:16;;;;;;;0.80;0.80;;;;;;;15.22;62.10;101242.72;5071493;28;20206;-72
2022/10/21 08:50:46;;;;;;;0.70;0.70;;;;;;;15.34;61.46;101245.47;5035729;28;20198;-72
2022/10/21 08:53:18;;;;;;;0.65;0.65;;;;;;;15.49;60.95;101264.88;5036078;28;20752;-72
2022/10/21 08:55:45;;;;;;;0.70;0.70;;;;;;;15.12;60.75;101258.22;5071492;28;20195;-72
2022/10/21 08:58:15;;;;;;;0.60;0.60;;;;;;;15.33;60.34;101253.31;5071249;28;20653;-72
2022/10/21 09:00:47;;;;;;;0.70;0.70;;;;;;;15.54;59.99;101263.22;5071333;28;20203;-72
2022/10/21 09:03:23;;;;;;;0.70;0.70;;;;;;;15.35;61.03;101262.94;5070919;28;20276;-72
2022/10/21 09:06:07;;;;;;;0.70;0.70;;;;;;;15.50;60.96;101261.41;5053117;28;20207;-71
2022/10/21 09:08:39;;;;;;;0.80;0.80;;;;;;;15.48;61.24;101253.50;5070861;28;20198;-73
2022/10/21 09:11:19;;;;;;;0.70;0.70;;;;;;;15.58;61.61;101247.59;5070923;28;20199;-71
2022/10/21 09:14:32;;;;;;;0.60;0.60;;;;;;;15.44;61.57;101259.59;5070789;28;20222;-71
2022/10/21 09:17:11;;;;;;;0.60;0.60;;;;;;;15.35;62.08;101252.47;5028381;28;20207;-72
2022/10/21 09:19:48;;;;;;;1.05;0.95;;;;;;;15.71;62.43;101254.75;5028431;28;20232;-71
2022/10/21 09:22:34;;;;;;;0.60;0.60;;;;;;;15.94;60.72;101257.66;5028421;28;20651;-71
2022/10/21 09:25:17;;;;;;;0.68;0.68;;;;;;;16.02;60.44;101260.34;5028758;28;20196;-72
2022/10/21 09:27:44;;;;;;;0.90;0.90;;;;;;;15.93;59.63;101255.91;5028730;28;20354;-71
2022/10/21 09:30:15;;;;;;;0.70;0.70;;;;;;;16.00;60.80;101239.41;5028220;28;20211;-71
2022/10/21 09:32:48;;;;;;;0.60;0.60;;;;;;;16.27;59.41;101255.41;5028335;28;20649;-71
2022/10/21 09:35:22;;;;;;;0.70;0.70;;;;;;;16.34;59.25;101251.97;5028446;28;20657;-73
2022/10/21 09:37:53;;;;;;;0.70;0.70;;;;;;;16.37;59.63;101254.63;5023153;28;20230;-73
2022/10/21 09:40:22;;;;;;;0.70;0.70;;;;;;;16.19;59.54;101256.19;5009191;28;20204;-71
2022/10/21 09:42:50;;;;;;;0.60;0.60;;;;;;;16.46;59.14;101250.34;4991895;28;20200;-71
2022/10/21 09:45:22;;;;;;;0.70;0.70;;;;;;;16.28;58.78;101198.69;5008634;28;20208;-71
2022/10/21 09:47:56;;;;;;;0.70;0.70;;;;;;;16.66;58.74;101243.59;5018400;28;20284;-71
2022/10/21 09:50:26;;;;;;;0.70;0.70;;;;;;;16.77;59.45;101242.81;5027889;28;20203;-71
2022/10/21 09:52:58;;;;;;;0.70;0.70;;;;;;;17.02;60.06;101233.41;5056590;28;20288;-71
2022/10/21 09:55:27;;;;;;;0.70;0.70;;;;;;;16.96;58.01;101242.97;5055524;28;20195;-70
2022/10/21 09:57:57;;;;;;;0.70;0.70;;;;;;;17.04;58.15;101233.44;5061952;28;20211;-70
2022/10/21 10:00:42;;;;;;;0.70;0.70;;;;;;;17.25;57.35;101231.84;5051258;28;20206;-70
2022/10/21 10:03:09;;;;;;;0.57;0.57;;;;;;;17.28;56.88;101229.22;5070171;28;20215;-69
2022/10/21 10:05:42;;;;;;;0.70;0.70;;;;;;;17.20;56.84;101207.31;5070041;28;20211;-70
2022/10/21 10:08:24;;;;;;;0.70;0.70;;;;;;;17.29;56.98;101196.03;5069969;28;20199;-68
2022/10/21 10:10:51;;;;;;;0.82;0.82;;;;;;;17.33;56.37;101224.00;5066589;28;20214;-68
2022/10/21 10:13:23;;;;;;;0.70;0.70;;;;;;;17.32;56.29;101223.13;5058565;28;20283;-69
2022/10/21 10:15:50;;;;;;;0.63;0.63;;;;;;;17.40;55.85;101207.44;5055868;28;20206;-68
2022/10/21 10:18:21;;;;;;;1.65;1.55;;;;;;;17.17;56.97;101209.94;5070007;28;20238;-68
2022/10/21 10:21:04;;;;;;;0.63;0.63;;;;;;;17.45;56.46;101210.06;5069280;28;20290;-69
2022/10/21 10:23:43;;;;;;;0.60;0.60;;;;;;;17.54;56.40;101202.25;5073094;28;20618;-68
2022/10/21 10:26:10;;;;;;;0.70;0.70;;;;;;;17.38;56.36;101196.06;5069916;28;20292;-71
2022/10/21 10:28:37;;;;;;;0.70;0.70;;;;;;;17.46;57.57;101194.34;5069862;28;20647;-71
2022/10/21 10:31:05;;;;;;;0.70;0.70;;;;;;;17.50;59.55;101185.63;5069709;28;20675;-71
2022/10/21 10:33:34;;;;;;;0.63;0.63;;;;;;;17.45;56.78;101191.72;5084453;28;20219;-70
2022/10/21 10:36:04;;;;;;;0.60;0.60;;;;;;;17.69;56.34;101192.72;5069835;28;20210;-70
2022/10/21 10:38:36;;;;;;;0.70;0.70;;;;;;;17.77;55.98;101185.78;5056193;28;20671;-70
2022/10/21 10:41:07;;;;;;;0.63;0.63;;;;;;;17.84;55.55;101192.78;5069855;28;20206;-70
2022/10/21 10:43:36;;;;;;;0.60;0.60;;;;;;;17.84;55.48;101184.03;5055764;28;20199;-71
2022/10/21 10:46:06;;;;;;;0.65;0.65;;;;;;;17.98;54.90;101184.09;5058209;28;20239;-71
2022/10/21 10:48:38;;;;;;;0.70;0.70;;;;;;;17.59;55.77;101176.94;5067603;28;20648;-70
2022/10/21 10:51:23;;;;;;;0.73;0.73;;;;;;;17.42;55.74;101147.13;5059105;28;20210;-70
2022/10/21 10:53:59;;;;;;;0.60;0.60;;;;;;;17.87;55.10;101176.19;5063487;28;20710;-72
2022/10/21 10:56:29;;;;;;;0.60;0.60;;;;;;;17.89;54.94;101169.19;5049695;28;20207;-71
2022/10/21 10:59:02;;;;;;;1.27;1.17;;;;;;;17.99;54.25;101165.72;5069278;28;20282;-70
2022/10/21 11:01:34;;;;;;;0.70;0.70;;;;;;;18.20;53.39;101163.13;5069504;28;20229;-70
2022/10/21 11:04:14;;;;;;;0.60;0.60;;;;;;;18.09;53.48;101156.09;5069631;28;20256;-71
2022/10/21 11:06:48;;;;;;;0.60;0.60;;;;;;;18.41;53.21;101161.41;5070602;28;20225;-71
2022/10/21 11:09:15;;;;;;;0.70;0.70;;;;;;;18.25;52.96;101150.00;5059822;28;20199;-71
2022/10/21 11:11:46;;;;;;;0.60;0.60;;;;;;;18.13;53.53;101144.72;5073039;28;20682;-71
2022/10/21 11:14:15;;;;;;;0.70;0.70;;;;;;;18.28;53.60;101137.75;5073049;28;20207;-71
2022/10/21 11:16:57;;;;;;;0.70;0.70;;;;;;;18.63;53.06;101134.28;5072903;28;20253;-71
2022/10/21 11:19:33;;;;;;;0.60;0.60;;;;;;;18.72;52.75;101134.28;5072895;28;20237;-71
2022/10/21 11:22:11;;;;;;;0.70;0.70;;;;;;;18.68;52.27;101107.13;5059730;28;20203;-71
2022/10/21 11:25:03;;;;;;;0.70;0.70;;;;;;;18.76;51.90;101125.50;5060222;28;20222;-71
2022/10/21 11:27:50;;;;;;;0.60;0.60;;;;;;;18.69;52.11;101119.38;5054092;28;20195;-71
2022/10/21 11:30:19;;;;;;;0.77;0.77;;;;;;;18.63;52.32;101097.50;5072819;28;20203;-70
2022/10/21 11:33:01;;;;;;;0.77;0.77;;;;;;;18.42;52.90;101113.25;5072866;28;20233;-71
2022/10/21 11:35:37;;;;;;;0.70;0.70;;;;;;;18.66;52.47;101114.13;5072558;28;20194;-70